| Date & Time | Wind Spd (mph) | Wind Dir (°) | Wind Gust (mph) | Wind Spd Sonic (mph) | Wind Dir Sonic (°) | Wind Gust Sonic (mph) |
|---|---|---|---|---|---|---|
| 5/3/26 - 2300 | 0.2 | NNW | 330 | 0.2 | 3.5 | W | 261 | 11.2 |
| 5/3/26 - 2255 | 0.2 | NNW | 330 | 0.2 | 2.0 | NNE | 17 | 3.1 |
| 5/3/26 - 2250 | 0.2 | NNW | 330 | 0.2 | 3.7 | N | 356 | 4.9 |
| 5/3/26 - 2245 | 0.2 | NNW | 330 | 0.2 | 3.1 | N | 5 | 4.0 |
| 5/3/26 - 2240 | 0.2 | NNW | 330 | 0.2 | 1.6 | NE | 36 | 3.1 |
| 5/3/26 - 2235 | 0.2 | NNW | 330 | 0.5 | 3.9 | NE | 47 | 6.5 |
| Max | 0.2 | - | 0.5 | 3.9 | - | 11.2 |
| Avg | 0.2 | - | 0.3 | 2.9 | - | 5.5 |
| Min | 0.2 | - | 0.2 | 1.6 | - | 3.1 |
| Wind Spd | 0.2 mph 17.3 |
|---|---|
| Wind Spd Sonic | 3.0 mph 15.4 |
| Wind Dir | NNW | 330 ° |
| Wind Dir Sonic | N | 349 ° |
| Wind Gust | 0.2 mph 22.6 |
| Wind Gust Sonic | 11.2 mph 9.9 |
| Temp | 29.2 °F 3.4 |
| RH | 80 % 6 |
| Dew Pt | 23.8 °F 5.1 |
| Wet Bulb | 27.3 °F 3.9 |
| Daily Max Wind | 30.8 mph 6.6 |
| Time of Max Wind | 1130 |
| Max Wind Dir | SW | 217 ° |
| Daily Max Gust Sonic | 31.1 mph 8.3 |
| Time Wind Max Sonic | 1204 |
| Dir Max Gust Sonic | SSW | 212 Degrees |
| Daily Max Temp | 37.2 °F 1.8 |
| Daily Min Temp | 26.8 °F 4.1 |
| Yest MaxT | 39.0 °F |
| Yest MinT | 30.9 °F |
| Yest MaxGst | 37.4 mph |
| Date & Time | Temp (°F) | WindChill (°F) | RH (%) | Dew Pt (°F) | Wet Bulb (°F) | Wind Spd (mph) | Wind Spd Sonic (mph) | Wind Dir (°) | Wind Dir Sonic (°) | Wind Gust (mph) | Wind Gust Sonic (mph) | Daily Min Temp (°F) | Daily Max Temp (°F) | Daily Max Wind (mph) | Daily Max Gust Sonic (mph) |
|---|---|---|---|---|---|---|---|---|---|---|---|---|---|---|---|
| 5/3/26 - 2300 | 29.2 | - | 80 | 23.8 | 27.3 | 0.2 | 3.0 | NNW | 330 | N | 349 | 0.2 | 11.2 | 26.8 | 37.2 | 30.8 | 31.1 |
| 5/3/26 - 2245 | 28.3 | - | 83 | 23.7 | 26.6 | 0.2 | 2.8 | NNW | 330 | NNE | 29 | 0.5 | 6.5 | 26.8 | 37.2 | 30.8 | 31.1 |
| 5/3/26 - 2230 | 28.6 | 25.3 | 83 | 24.0 | 26.9 | 1.4 | 4.8 | E | 95 | NE | 49 | 4.8 | 10.3 | 26.8 | 37.2 | 30.8 | 31.1 |
| 5/3/26 - 2215 | 29.2 | 22.0 | 88 | 26.1 | 28.0 | 5.1 | 8.4 | SSW | 193 | S | 185 | 9.4 | 17.2 | 26.8 | 37.2 | 30.8 | 31.1 |
| 5/3/26 - 2200 | 28.9 | 18.7 | 89 | 26.1 | 27.8 | 9.5 | 12.4 | SSW | 204 | SSW | 204 | 15.3 | 17.2 | 26.8 | 37.2 | 30.8 | 31.1 |
| 5/3/26 - 2145 | 29.1 | 18.1 | 87 | 25.6 | 27.8 | 11.8 | 14.9 | SSW | 194 | SSW | 193 | 17.3 | 19.9 | 26.8 | 37.2 | 30.8 | 31.1 |
| 5/3/26 - 2130 | 29.1 | 19.0 | 88 | 26.1 | 28.0 | 9.6 | 12.5 | S | 175 | S | 172 | 15.1 | 16.6 | 26.8 | 37.2 | 30.8 | 31.1 |
| 5/3/26 - 2115 | 28.9 | 20.8 | 93 | 27.1 | 28.2 | 6.5 | 9.7 | S | 174 | SSE | 166 | 10.5 | 14.5 | 26.8 | 37.2 | 30.8 | 31.1 |
| 5/3/26 - 2100 | 28.4 | 19.8 | 98 | 27.8 | 28.1 | 7.6 | 10.9 | SSW | 200 | SSW | 199 | 10.7 | 13.9 | 26.8 | 37.2 | 30.8 | 31.1 |
| 5/3/26 - 2045 | 27.7 | 16.0 | 98 | 27.4 | 27.5 | 11.4 | 14.4 | S | 175 | S | 170 | 19.2 | 22.4 | 26.8 | 37.2 | 30.8 | 31.1 |
| 5/3/26 - 2030 | 27.8 | 14.2 | 99 | 27.6 | 27.6 | 16.8 | 20.1 | S | 170 | SSE | 168 | 24.8 | 28.0 | 26.8 | 37.2 | 30.8 | 31.1 |
| 5/3/26 - 2015 | 28.1 | 15.5 | 100 | 28.1 | 28.0 | 13.9 | 17.5 | S | 191 | S | 189 | 22.3 | 24.6 | 26.8 | 37.2 | 30.8 | 31.1 |
| 5/3/26 - 2000 | 28.1 | 15.8 | 100 | 28.1 | 28.0 | 14.7 | 18.6 | SSW | 198 | SSW | 196 | 19.6 | 21.9 | 26.8 | 37.2 | 30.8 | 31.1 |
| 5/3/26 - 1945 | 27.6 | 15.3 | 100 | 27.6 | 27.5 | 14.6 | 18.2 | SW | 214 | SW | 214 | 19.3 | 20.8 | 26.8 | 37.2 | 30.8 | 31.1 |
| 5/3/26 - 1930 | 27.2 | 14.6 | 100 | 27.2 | 27.1 | 15.1 | 19.4 | SW | 222 | SW | 220 | 19.4 | 22.4 | 26.9 | 37.2 | 30.8 | 31.1 |
| 5/3/26 - 1915 | 27.5 | 13.8 | 100 | 27.4 | 27.3 | 17.0 | 21.7 | SW | 220 | SW | 218 | 24.9 | 24.8 | 27.3 | 37.2 | 30.8 | 31.1 |
| 5/3/26 - 1900 | 27.8 | 14.6 | 99 | 27.5 | 27.5 | 16.8 | 21.9 | SW | 215 | SW | 215 | 22.1 | 24.8 | 27.6 | 37.2 | 30.8 | 31.1 |
| 5/3/26 - 1845 | 28.7 | 17.7 | 98 | 28.2 | 28.4 | 10.0 | 14.0 | SW | 215 | SSW | 213 | 18.6 | 21.7 | 27.8 | 37.2 | 30.8 | 31.1 |
| 5/3/26 - 1830 | 30.0 | 18.8 | 95 | 28.8 | 29.5 | 11.9 | 15.0 | SSW | 209 | SSW | 210 | 19.3 | 20.4 | 29.0 | 37.2 | 30.8 | 31.1 |
| 5/3/26 - 1815 | 31.0 | 22.6 | 92 | 28.9 | 30.2 | 7.8 | 10.6 | SSW | 198 | SSW | 197 | 12.0 | 14.8 | 29.0 | 37.2 | 30.8 | 31.1 |
| 5/3/26 - 1800 | 30.5 | 20.4 | 86 | 26.9 | 29.1 | 10.5 | 13.1 | SSW | 212 | SSW | 211 | 15.7 | 23.5 | 29.0 | 37.2 | 30.8 | 31.1 |
| 5/3/26 - 1745 | 31.6 | 21.2 | 85 | 27.7 | 30.1 | 11.0 | 13.3 | SSW | 209 | SSW | 206 | 18.5 | 19.9 | 29.0 | 37.2 | 30.8 | 31.1 |
| 5/3/26 - 1730 | 31.1 | 18.5 | 88 | 27.9 | 29.8 | 16.6 | 18.1 | SW | 219 | SW | 217 | 25.0 | 26.4 | 29.0 | 37.2 | 30.8 | 31.1 |
| 5/3/26 - 1715 | 31.5 | 19.5 | 87 | 28.2 | 30.2 | 14.8 | 16.8 | SW | 218 | SW | 215 | 24.4 | 24.6 | 29.0 | 37.2 | 30.8 | 31.1 |
| 5/3/26 - 1700 | 30.7 | 18.2 | 90 | 28.1 | 29.6 | 15.7 | 16.5 | SW | 231 | SW | 230 | 24.4 | 27.3 | 29.0 | 37.2 | 30.8 | 31.1 |
| 5/3/26 - 1645 | 30.0 | 17.3 | 94 | 28.4 | 29.3 | 16.6 | 17.5 | SW | 226 | SW | 224 | 24.0 | 23.3 | 29.0 | 37.2 | 30.8 | 31.1 |
| 5/3/26 - 1630 | 29.4 | 16.6 | 94 | 27.8 | 28.7 | 15.6 | 17.4 | SW | 228 | SW | 227 | 24.5 | 23.5 | 29.0 | 37.2 | 30.8 | 31.1 |
| 5/3/26 - 1615 | 30.3 | 18.2 | 90 | 27.9 | 29.3 | 15.4 | 17.0 | SW | 227 | SW | 224 | 21.9 | 23.3 | 29.7 | 37.2 | 30.8 | 31.1 |
| 5/3/26 - 1600 | 32.2 | 21.1 | 82 | 27.4 | 30.4 | 13.6 | 15.7 | SW | 224 | SW | 221 | 20.9 | 21.2 | 29.9 | 37.2 | 30.8 | 31.1 |
| 5/3/26 - 1545 | 34.5 | 26.4 | 75 | 27.4 | 31.8 | 7.7 | 10.0 | SSW | 210 | SSW | 208 | 13.9 | 15.2 | 29.9 | 37.2 | 30.8 | 31.1 |
| 5/3/26 - 1530 | 33.2 | 24.6 | 79 | 27.3 | 31.0 | 7.0 | 9.2 | SW | 215 | SSW | 212 | 15.5 | 15.0 | 29.9 | 37.2 | 30.8 | 31.1 |
| 5/3/26 - 1515 | 33.5 | 23.5 | 76 | 26.8 | 31.0 | 11.7 | 13.8 | SW | 215 | SW | 214 | 18.2 | 17.9 | 29.9 | 37.2 | 30.8 | 31.1 |
| 5/3/26 - 1500 | 32.5 | 22.5 | 77 | 26.2 | 30.1 | 11.5 | 13.3 | SSW | 207 | SSW | 205 | 16.9 | 18.3 | 29.9 | 37.2 | 30.8 | 31.1 |
| 5/3/26 - 1445 | 33.5 | 23.1 | 74 | 26.1 | 30.8 | 12.4 | 14.4 | SSW | 199 | SSW | 196 | 20.2 | 20.8 | 29.9 | 37.2 | 30.8 | 31.1 |
| 5/3/26 - 1430 | 33.2 | 23.6 | 76 | 26.5 | 30.7 | 10.8 | 12.7 | SSW | 203 | SSW | 201 | 16.7 | 18.6 | 29.9 | 37.2 | 30.8 | 31.1 |
| 5/3/26 - 1415 | 31.9 | 20.8 | 77 | 25.7 | 29.6 | 13.9 | 15.5 | SW | 215 | SSW | 212 | 20.6 | 20.8 | 29.9 | 37.2 | 30.8 | 31.1 |
| 5/3/26 - 1400 | 32.4 | 22.0 | 73 | 24.9 | 29.7 | 10.9 | 12.5 | SW | 220 | SW | 218 | 19.9 | 18.3 | 29.9 | 37.2 | 30.8 | 31.1 |
| 5/3/26 - 1345 | 32.4 | 22.8 | 73 | 24.9 | 29.7 | 10.4 | 12.6 | SW | 222 | SW | 220 | 16.2 | 17.4 | 29.9 | 37.2 | 30.8 | 31.1 |
| 5/3/26 - 1330 | 32.0 | 21.4 | 73 | 24.2 | 29.2 | 11.2 | 13.1 | SW | 223 | SW | 220 | 19.4 | 19.2 | 29.9 | 37.2 | 30.8 | 31.1 |
| 5/3/26 - 1315 | 32.1 | 22.3 | 73 | 24.4 | 29.3 | 10.0 | 12.7 | SW | 228 | SW | 225 | 17.0 | 19.0 | 29.9 | 37.2 | 30.8 | 31.1 |
| 5/3/26 - 1300 | 30.9 | 19.7 | 75 | 24.0 | 28.4 | 13.2 | 14.9 | SW | 225 | SW | 222 | 19.6 | 20.8 | 29.9 | 37.2 | 30.8 | 31.1 |
| 5/3/26 - 1245 | 30.7 | 18.8 | 76 | 24.0 | 28.3 | 14.8 | 16.8 | SW | 218 | SW | 216 | 22.1 | 23.9 | 29.9 | 37.2 | 30.8 | 31.1 |
| 5/3/26 - 1230 | 30.3 | 17.0 | 77 | 23.9 | 28.0 | 17.3 | 19.4 | SW | 222 | SW | 220 | 28.2 | 28.6 | 29.9 | 37.2 | 30.8 | 31.1 |
| 5/3/26 - 1215 | 30.6 | 16.6 | 77 | 24.4 | 28.4 | 22.1 | 24.5 | SW | 216 | SW | 214 | 30.1 | 31.1 | 30.2 | 37.2 | 30.8 | 31.1 |
| 5/3/26 - 1200 | 31.6 | 18.2 | 76 | 24.9 | 29.2 | 21.2 | 23.0 | SW | 216 | SW | 214 | 29.1 | 28.2 | 31.2 | 37.2 | 30.8 | 29.1 |
| 5/3/26 - 1145 | 31.5 | 17.8 | 78 | 25.4 | 29.2 | 21.4 | 22.6 | SW | 218 | SW | 216 | 29.7 | 29.1 | 31.2 | 37.2 | 30.8 | 29.1 |
| 5/3/26 - 1130 | 32.3 | 19.1 | 76 | 25.5 | 29.8 | 19.4 | 21.0 | SW | 224 | SW | 223 | 30.8 | 29.1 | 31.4 | 37.2 | 30.8 | 29.1 |
| 5/3/26 - 1115 | 35.4 | 24.2 | 69 | 26.2 | 32.0 | 16.1 | 17.8 | SSW | 213 | SSW | 212 | 25.2 | 29.1 | 32.0 | 37.2 | 25.2 | 29.1 |
| 5/3/26 - 1100 | 35.3 | 25.5 | 71 | 26.9 | 32.1 | 11.2 | 13.6 | SSW | 208 | SSW | 208 | 20.5 | 20.4 | 32.0 | 36.9 | 21.6 | 21.7 |
| 5/3/26 - 1045 | 34.2 | 26.9 | 74 | 26.6 | 31.3 | 3.9 | 6.7 | WNW | 282 | SW | 231 | 14.1 | 14.8 | 32.0 | 36.6 | 21.6 | 21.7 |
| 5/3/26 - 1030 | 34.6 | 28.8 | 74 | 27.1 | 31.8 | 4.3 | 6.4 | NNE | 14 | N | 4 | 9.3 | 11.6 | 32.0 | 36.6 | 21.6 | 21.7 |
| 5/3/26 - 1015 | 33.7 | 28.2 | 73 | 25.9 | 30.8 | 3.4 | 6.2 | NNE | 19 | N | 8 | 8.9 | 11.4 | 32.0 | 35.2 | 21.6 | 21.7 |
| 5/3/26 - 1000 | 32.9 | 24.7 | 73 | 25.4 | 30.2 | 8.1 | 10.1 | NNE | 20 | NNE | 18 | 12.8 | 13.2 | 32.0 | 35.2 | 21.6 | 21.7 |
| 5/3/26 - 0945 | 32.6 | 24.4 | 74 | 25.2 | 30.0 | 7.7 | 10.1 | NNE | 23 | NNE | 19 | 12.8 | 14.1 | 32.0 | 35.2 | 21.6 | 21.7 |
| 5/3/26 - 0930 | 32.5 | 25.5 | 73 | 24.7 | 29.6 | 6.0 | 8.5 | NE | 36 | NNE | 33 | 9.6 | 13.0 | 32.0 | 35.2 | 21.6 | 21.7 |
| 5/3/26 - 0915 | 33.0 | 24.1 | 72 | 25.0 | 30.1 | 9.6 | 11.5 | NE | 39 | NE | 35 | 13.9 | 14.8 | 32.1 | 35.2 | 21.6 | 21.7 |
| 5/3/26 - 0900 | 33.6 | 24.8 | 66 | 23.5 | 30.0 | 9.0 | 11.5 | ENE | 65 | ENE | 60 | 14.5 | 16.3 | 32.1 | 35.2 | 21.6 | 21.7 |
| 5/3/26 - 0845 | 33.0 | 23.6 | 68 | 23.5 | 29.7 | 10.5 | 13.2 | ENE | 58 | NE | 55 | 15.9 | 17.2 | 32.1 | 35.2 | 21.6 | 21.7 |
| 5/3/26 - 0830 | 33.2 | 22.8 | 65 | 22.6 | 29.5 | 11.4 | 14.2 | ENE | 61 | ENE | 58 | 20.0 | 19.7 | 32.1 | 35.2 | 21.6 | 21.7 |
| 5/3/26 - 0815 | 32.9 | 23.4 | 66 | 22.7 | 29.4 | 9.8 | 12.3 | ENE | 61 | ENE | 57 | 16.8 | 18.1 | 32.1 | 35.2 | 21.6 | 21.7 |
| 5/3/26 - 0800 | 34.2 | 24.6 | 55 | 19.8 | 29.4 | 11.3 | 12.9 | ENE | 74 | ENE | 70 | 17.4 | 18.1 | 32.1 | 35.2 | 21.6 | 21.7 |
| 5/3/26 - 0745 | 33.8 | 23.1 | 59 | 20.7 | 29.3 | 12.8 | 14.2 | E | 83 | E | 79 | 21.6 | 20.6 | 32.1 | 35.2 | 21.6 | 21.7 |
| 5/3/26 - 0730 | 33.0 | 24.0 | 65 | 22.6 | 29.3 | 9.2 | 11.5 | ENE | 68 | ENE | 65 | 14.9 | 16.8 | 32.1 | 35.0 | 21.0 | 21.7 |
| 5/3/26 - 0715 | 33.6 | 25.6 | 66 | 23.3 | 29.9 | 8.3 | 10.8 | ENE | 63 | ENE | 58 | 12.3 | 14.8 | 32.1 | 35.0 | 21.0 | 21.7 |
| 5/3/26 - 0700 | 34.4 | 26.4 | 61 | 22.4 | 30.2 | 8.2 | 10.0 | ENE | 77 | ENE | 75 | 12.8 | 13.2 | 32.1 | 35.0 | 21.0 | 21.7 |
| 5/3/26 - 0645 | 33.3 | 27.2 | 70 | 24.5 | 30.1 | 4.5 | 7.3 | E | 85 | ENE | 75 | 8.8 | 12.5 | 32.1 | 34.9 | 21.0 | 21.7 |
| 5/3/26 - 0630 | 33.2 | 23.5 | 58 | 20.0 | 28.8 | 9.0 | 10.9 | E | 95 | E | 88 | 18.8 | 21.0 | 32.1 | 34.9 | 21.0 | 21.7 |
| 5/3/26 - 0615 | 33.1 | 23.7 | 55 | 18.7 | 28.4 | 11.0 | 12.5 | E | 97 | E | 101 | 15.4 | 15.2 | 32.1 | 34.9 | 21.0 | 21.7 |
| 5/3/26 - 0600 | 33.6 | 26.9 | 56 | 19.6 | 28.9 | 5.2 | 7.7 | E | 84 | E | 92 | 10.3 | 11.4 | 32.1 | 34.9 | 21.0 | 21.7 |
| 5/3/26 - 0545 | 34.3 | - | 58 | 21.0 | 29.8 | 1.5 | 5.5 | E | 82 | SE | 124 | 3.9 | 8.3 | 32.1 | 34.9 | 21.0 | 21.7 |
| 5/3/26 - 0530 | 34.4 | - | 60 | 22.0 | 30.1 | 0.6 | 4.9 | E | 81 | SSE | 150 | 2.2 | 13.4 | 32.1 | 34.9 | 21.0 | 21.7 |
| 5/3/26 - 0515 | 34.3 | - | 60 | 21.7 | 30.0 | 0.5 | 3.9 | E | 79 | SE | 134 | 3.2 | 9.0 | 32.1 | 34.9 | 21.0 | 21.7 |
| 5/3/26 - 0500 | 33.9 | - | 60 | 21.4 | 29.6 | 0.3 | 3.2 | ENE | 78 | ESE | 123 | 1.1 | 6.0 | 32.1 | 34.9 | 21.0 | 21.7 |
| 5/3/26 - 0445 | 33.8 | - | 60 | 21.2 | 29.4 | 0.3 | 4.0 | ENE | 78 | E | 94 | 1.7 | 7.8 | 32.1 | 34.9 | 21.0 | 21.7 |
| 5/3/26 - 0430 | 33.6 | 30.4 | 60 | 21.4 | 29.4 | 0.9 | 4.3 | E | 79 | ENE | 78 | 6.3 | 16.3 | 32.1 | 34.9 | 21.0 | 21.7 |
| 5/3/26 - 0415 | 33.3 | - | 67 | 23.4 | 29.8 | 1.9 | 5.5 | E | 79 | NE | 56 | 3.7 | 7.8 | 32.1 | 34.9 | 21.0 | 21.7 |
| 5/3/26 - 0400 | 33.3 | 27.0 | 67 | 23.5 | 29.8 | 5.3 | 7.7 | E | 80 | ENE | 58 | 9.1 | 10.1 | 32.1 | 34.9 | 21.0 | 21.7 |
| 5/3/26 - 0345 | 33.9 | 29.2 | 64 | 22.9 | 30.0 | 2.9 | 5.6 | E | 84 | ENE | 76 | 7.2 | 9.8 | 32.1 | 34.9 | 21.0 | 21.7 |
| 5/3/26 - 0330 | 33.7 | 28.9 | 64 | 22.9 | 29.9 | 4.2 | 6.7 | E | 84 | NE | 54 | 6.3 | 9.2 | 32.1 | 34.9 | 21.0 | 21.7 |
| 5/3/26 - 0315 | 34.0 | 27.9 | 66 | 24.0 | 30.4 | 5.3 | 7.7 | E | 98 | ENE | 74 | 8.7 | 11.2 | 32.1 | 34.9 | 21.0 | 21.7 |
| 5/3/26 - 0300 | 34.3 | 27.0 | 71 | 25.9 | 31.2 | 7.1 | 9.6 | SSE | 166 | SSE | 152 | 11.0 | 12.3 | 32.1 | 34.9 | 21.0 | 21.7 |
| 5/3/26 - 0245 | 34.6 | 25.1 | 71 | 26.3 | 31.5 | 11.4 | 13.9 | S | 178 | S | 175 | 17.5 | 20.1 | 32.1 | 34.9 | 21.0 | 21.7 |
| 5/3/26 - 0230 | 34.0 | 23.1 | 73 | 26.3 | 31.1 | 15.1 | 17.6 | S | 181 | S | 181 | 21.0 | 20.8 | 32.1 | 34.2 | 21.0 | 21.7 |
| 5/3/26 - 0215 | 33.5 | 22.6 | 75 | 26.4 | 30.9 | 15.2 | 17.4 | S | 189 | S | 186 | 20.4 | 21.7 | 32.1 | 33.8 | 20.4 | 21.7 |
| 5/3/26 - 0200 | 32.9 | 22.2 | 79 | 27.2 | 30.7 | 13.4 | 15.2 | SSW | 193 | S | 191 | 19.6 | 20.1 | 32.1 | 33.8 | 19.6 | 20.1 |
| 5/3/26 - 0145 | 32.4 | 23.2 | 82 | 27.3 | 30.4 | 9.9 | 11.8 | SSW | 211 | SSW | 210 | 14.0 | 15.0 | 32.1 | 32.8 | 18.0 | 19.0 |
| 5/3/26 - 0130 | 32.4 | 22.0 | 82 | 27.5 | 30.5 | 12.2 | 13.6 | SSW | 209 | SSW | 208 | 18.0 | 19.0 | 32.1 | 32.8 | 18.0 | 19.0 |
| 5/3/26 - 0115 | 32.4 | 22.2 | 82 | 27.6 | 30.6 | 12.6 | 14.2 | SSW | 207 | SSW | 205 | 17.1 | 17.4 | 32.2 | 32.8 | 17.1 | 17.4 |
| 5/3/26 - 0100 | 32.5 | 22.8 | 83 | 27.8 | 30.7 | 11.4 | 12.7 | SSW | 210 | SSW | 210 | 15.4 | 15.0 | 30.9 | 39.0 | 37.4 | 39.4 |
| 5/3/26 - 0045 | 32.8 | 22.8 | 83 | 28.1 | 31.0 | 12.0 | 13.6 | SW | 215 | SSW | 212 | 17.0 | 16.3 | 30.9 | 39.0 | 37.4 | 39.4 |
| 5/3/26 - 0030 | 32.2 | 21.5 | 83 | 27.8 | 30.5 | 13.3 | 14.8 | SW | 215 | SSW | 213 | 18.8 | 18.8 | 30.9 | 39.0 | 37.4 | 39.4 |
| 5/3/26 - 0015 | 32.2 | 20.4 | 84 | 28.0 | 30.6 | 16.6 | 18.1 | SSW | 210 | SSW | 209 | 22.6 | 22.4 | 30.9 | 39.0 | 37.4 | 39.4 |
| 5/3/26 - 0000 | 32.4 | 20.2 | 86 | 28.8 | 31.0 | 18.0 | 19.2 | SW | 217 | SW | 214 | 24.2 | 23.5 | 30.9 | 39.0 | 37.4 | 39.4 |
| 5/2/26 - 2345 | 32.5 | 21.0 | 87 | 29.1 | 31.2 | 16.0 | 17.0 | SW | 220 | SW | 218 | 21.9 | 20.4 | 30.9 | 39.0 | 37.4 | 39.4 |
| 5/2/26 - 2330 | 32.2 | 20.6 | 87 | 28.9 | 30.9 | 16.5 | 16.8 | SW | 220 | SW | 217 | 20.8 | 19.0 | 30.9 | 39.0 | 37.4 | 39.4 |
| 5/2/26 - 2315 | 32.3 | 20.7 | 87 | 28.8 | 30.9 | 16.1 | 16.5 | SW | 218 | SW | 215 | 21.6 | 19.7 | 30.9 | 39.0 | 37.4 | 39.4 |
| 5/2/26 - 2300 | 32.6 | 20.8 | 86 | 28.9 | 31.2 | 17.5 | 18.4 | SW | 220 | SW | 218 | 22.8 | 21.0 | 30.9 | 39.0 | 37.4 | 39.4 |
| Max | 35.4 | 30.4 | 100 | 29.1 | 32.1 | 22.1 | 24.5 | - | - | 30.8 | 31.1 | 32.2 | 39.0 | 37.4 | 39.4 |
| Avg | 31.9 | 21.9 | 78 | 25.5 | 29.6 | 10.6 | 13.0 | - | - | 16.4 | 18.2 | - | - | - | - |
| Min | 27.2 | 13.8 | 55 | 18.7 | 26.6 | 0.2 | 2.8 | - | - | 0.2 | 6.0 | 26.8 | 32.8 | 17.1 | 17.4 |